sensor_id;sensor_type;location;lat;lon;timestamp;P1;durP1;ratioP1;P2;durP2;ratioP2
11187;SDS011;5650;52.700;7.306;2023-03-01T00:01:31;10.73;;;6.78;;
11187;SDS011;5650;52.700;7.306;2023-03-01T00:04:04;8.20;;;5.22;;
11187;SDS011;5650;52.700;7.306;2023-03-01T00:06:31;8.68;;;5.30;;
11187;SDS011;5650;52.700;7.306;2023-03-01T00:09:06;9.65;;;6.22;;
11187;SDS011;5650;52.700;7.306;2023-03-01T00:11:37;7.53;;;5.22;;
11187;SDS011;5650;52.700;7.306;2023-03-01T00:14:07;10.07;;;5.97;;
11187;SDS011;5650;52.700;7.306;2023-03-01T00:16:35;11.38;;;5.40;;
11187;SDS011;5650;52.700;7.306;2023-03-01T00:19:06;8.43;;;5.65;;
11187;SDS011;5650;52.700;7.306;2023-03-01T00:21:37;8.27;;;5.35;;
11187;SDS011;5650;52.700;7.306;2023-03-01T00:24:06;7.55;;;4.95;;
11187;SDS011;5650;52.700;7.306;2023-03-01T00:26:34;12.18;;;5.60;;
11187;SDS011;5650;52.700;7.306;2023-03-01T00:29:05;7.88;;;5.00;;
11187;SDS011;5650;52.700;7.306;2023-03-01T00:31:32;7.38;;;4.80;;
11187;SDS011;5650;52.700;7.306;2023-03-01T00:34:01;7.38;;;4.78;;
11187;SDS011;5650;52.700;7.306;2023-03-01T00:36:31;5.15;;;4.38;;
11187;SDS011;5650;52.700;7.306;2023-03-01T00:39:02;6.10;;;4.47;;
11187;SDS011;5650;52.700;7.306;2023-03-01T00:41:32;5.35;;;3.97;;
11187;SDS011;5650;52.700;7.306;2023-03-01T00:43:59;6.68;;;4.40;;
11187;SDS011;5650;52.700;7.306;2023-03-01T00:46:26;5.57;;;3.47;;
11187;SDS011;5650;52.700;7.306;2023-03-01T00:48:55;5.95;;;4.35;;
11187;SDS011;5650;52.700;7.306;2023-03-01T00:51:26;5.35;;;4.00;;
11187;SDS011;5650;52.700;7.306;2023-03-01T00:53:55;6.60;;;3.58;;
11187;SDS011;5650;52.700;7.306;2023-03-01T00:56:23;5.55;;;4.00;;
11187;SDS011;5650;52.700;7.306;2023-03-01T00:58:53;8.73;;;4.55;;
11187;SDS011;5650;52.700;7.306;2023-03-01T01:01:20;4.45;;;3.20;;
11187;SDS011;5650;52.700;7.306;2023-03-01T01:03:53;5.57;;;4.15;;
11187;SDS011;5650;52.700;7.306;2023-03-01T01:06:22;10.43;;;5.38;;
11187;SDS011;5650;52.700;7.306;2023-03-01T01:08:51;4.63;;;3.80;;
11187;SDS011;5650;52.700;7.306;2023-03-01T01:11:19;4.80;;;3.65;;
11187;SDS011;5650;52.700;7.306;2023-03-01T01:13:48;5.57;;;3.97;;
11187;SDS011;5650;52.700;7.306;2023-03-01T01:16:20;5.88;;;3.65;;
11187;SDS011;5650;52.700;7.306;2023-03-01T01:18:55;4.25;;;3.45;;
11187;SDS011;5650;52.700;7.306;2023-03-01T01:21:23;5.90;;;3.67;;
11187;SDS011;5650;52.700;7.306;2023-03-01T01:23:51;5.90;;;4.15;;
11187;SDS011;5650;52.700;7.306;2023-03-01T01:26:19;4.80;;;3.42;;
11187;SDS011;5650;52.700;7.306;2023-03-01T01:28:48;6.70;;;4.00;;
11187;SDS011;5650;52.700;7.306;2023-03-01T01:31:18;5.10;;;3.85;;
11187;SDS011;5650;52.700;7.306;2023-03-01T01:33:49;4.38;;;3.67;;
11187;SDS011;5650;52.700;7.306;2023-03-01T01:36:16;9.55;;;4.00;;
11187;SDS011;5650;52.700;7.306;2023-03-01T01:38:44;3.72;;;3.40;;
11187;SDS011;5650;52.700;7.306;2023-03-01T01:41:12;5.15;;;3.58;;
11187;SDS011;5650;52.700;7.306;2023-03-01T01:43:46;8.32;;;3.40;;
11187;SDS011;5650;52.700;7.306;2023-03-01T01:46:16;5.57;;;3.60;;
11187;SDS011;5650;52.700;7.306;2023-03-01T01:48:52;5.15;;;3.70;;
11187;SDS011;5650;52.700;7.306;2023-03-01T01:51:26;5.40;;;3.83;;
11187;SDS011;5650;52.700;7.306;2023-03-01T01:54:10;5.88;;;3.60;;
11187;SDS011;5650;52.700;7.306;2023-03-01T01:56:41;5.53;;;3.60;;
11187;SDS011;5650;52.700;7.306;2023-03-01T01:59:12;4.22;;;3.72;;
11187;SDS011;5650;52.700;7.306;2023-03-01T02:01:42;5.22;;;3.17;;
11187;SDS011;5650;52.700;7.306;2023-03-01T02:04:10;5.95;;;3.50;;
11187;SDS011;5650;52.700;7.306;2023-03-01T02:06:38;4.38;;;3.65;;
11187;SDS011;5650;52.700;7.306;2023-03-01T02:09:11;5.15;;;3.83;;
11187;SDS011;5650;52.700;7.306;2023-03-01T02:11:43;4.45;;;3.80;;
11187;SDS011;5650;52.700;7.306;2023-03-01T02:14:11;4.85;;;3.50;;
11187;SDS011;5650;52.700;7.306;2023-03-01T02:16:50;4.90;;;3.53;;
11187;SDS011;5650;52.700;7.306;2023-03-01T02:19:19;4.70;;;3.63;;
11187;SDS011;5650;52.700;7.306;2023-03-01T02:21:56;4.60;;;3.58;;
11187;SDS011;5650;52.700;7.306;2023-03-01T02:24:35;6.28;;;4.13;;
11187;SDS011;5650;52.700;7.306;2023-03-01T02:27:07;5.38;;;3.50;;
11187;SDS011;5650;52.700;7.306;2023-03-01T02:29:37;6.50;;;3.83;;
11187;SDS011;5650;52.700;7.306;2023-03-01T02:32:04;5.15;;;3.10;;
11187;SDS011;5650;52.700;7.306;2023-03-01T02:34:32;5.40;;;3.92;;
11187;SDS011;5650;52.700;7.306;2023-03-01T02:37:01;4.85;;;3.90;;
11187;SDS011;5650;52.700;7.306;2023-03-01T02:39:30;5.35;;;3.63;;
11187;SDS011;5650;52.700;7.306;2023-03-01T02:42:00;4.80;;;3.72;;
11187;SDS011;5650;52.700;7.306;2023-03-01T02:44:30;4.45;;;3.78;;
11187;SDS011;5650;52.700;7.306;2023-03-01T02:47:05;6.13;;;3.88;;
11187;SDS011;5650;52.700;7.306;2023-03-01T02:49:36;6.22;;;3.45;;
11187;SDS011;5650;52.700;7.306;2023-03-01T02:54:57;4.60;;;3.03;;
11187;SDS011;5650;52.700;7.306;2023-03-01T02:57:30;4.18;;;3.47;;
11187;SDS011;5650;52.700;7.306;2023-03-01T02:59:59;7.57;;;3.67;;
11187;SDS011;5650;52.700;7.306;2023-03-01T03:02:46;7.95;;;4.22;;
11187;SDS011;5650;52.700;7.306;2023-03-01T03:05:21;6.90;;;4.75;;
11187;SDS011;5650;52.700;7.306;2023-03-01T03:07:50;8.05;;;5.07;;
11187;SDS011;5650;52.700;7.306;2023-03-01T03:10:22;12.18;;;5.75;;
11187;SDS011;5650;52.700;7.306;2023-03-01T03:12:54;7.45;;;4.82;;
11187;SDS011;5650;52.700;7.306;2023-03-01T03:15:23;5.63;;;4.05;;
11187;SDS011;5650;52.700;7.306;2023-03-01T03:17:55;6.80;;;4.15;;
11187;SDS011;5650;52.700;7.306;2023-03-01T03:20:31;6.18;;;4.00;;
11187;SDS011;5650;52.700;7.306;2023-03-01T03:22:59;4.93;;;3.85;;
11187;SDS011;5650;52.700;7.306;2023-03-01T03:25:29;7.03;;;4.10;;
11187;SDS011;5650;52.700;7.306;2023-03-01T03:27:57;7.95;;;5.28;;
11187;SDS011;5650;52.700;7.306;2023-03-01T03:30:25;5.70;;;4.35;;
11187;SDS011;5650;52.700;7.306;2023-03-01T03:32:56;8.77;;;5.18;;
11187;SDS011;5650;52.700;7.306;2023-03-01T03:35:25;6.80;;;5.13;;
11187;SDS011;5650;52.700;7.306;2023-03-01T03:37:55;11.23;;;5.80;;
11187;SDS011;5650;52.700;7.306;2023-03-01T03:40:29;6.80;;;4.22;;
11187;SDS011;5650;52.700;7.306;2023-03-01T03:42:58;5.10;;;3.80;;
11187;SDS011;5650;52.700;7.306;2023-03-01T03:45:25;6.63;;;3.85;;
11187;SDS011;5650;52.700;7.306;2023-03-01T03:47:57;9.18;;;4.05;;
11187;SDS011;5650;52.700;7.306;2023-03-01T03:50:24;5.78;;;4.35;;
11187;SDS011;5650;52.700;7.306;2023-03-01T03:52:51;5.50;;;4.10;;
11187;SDS011;5650;52.700;7.306;2023-03-01T03:55:19;5.50;;;3.70;;
11187;SDS011;5650;52.700;7.306;2023-03-01T03:57:47;6.97;;;3.97;;
11187;SDS011;5650;52.700;7.306;2023-03-01T04:00:17;7.05;;;4.45;;
11187;SDS011;5650;52.700;7.306;2023-03-01T04:02:46;7.05;;;4.60;;
11187;SDS011;5650;52.700;7.306;2023-03-01T04:05:15;9.18;;;5.40;;
11187;SDS011;5650;52.700;7.306;2023-03-01T04:07:44;11.18;;;5.13;;
11187;SDS011;5650;52.700;7.306;2023-03-01T04:10:13;6.47;;;4.93;;
11187;SDS011;5650;52.700;7.306;2023-03-01T04:12:41;8.70;;;5.28;;
11187;SDS011;5650;52.700;7.306;2023-03-01T04:15:12;7.13;;;5.10;;
11187;SDS011;5650;52.700;7.306;2023-03-01T04:17:43;13.98;;;8.38;;
11187;SDS011;5650;52.700;7.306;2023-03-01T04:20:17;19.25;;;13.68;;
11187;SDS011;5650;52.700;7.306;2023-03-01T04:23:08;18.45;;;10.90;;
11187;SDS011;5650;52.700;7.306;2023-03-01T04:25:38;7.15;;;5.30;;
11187;SDS011;5650;52.700;7.306;2023-03-01T04:28:07;14.15;;;7.85;;
11187;SDS011;5650;52.700;7.306;2023-03-01T04:30:35;9.48;;;6.25;;
11187;SDS011;5650;52.700;7.306;2023-03-01T04:33:03;9.60;;;6.05;;
11187;SDS011;5650;52.700;7.306;2023-03-01T04:35:33;9.60;;;5.82;;
11187;SDS011;5650;52.700;7.306;2023-03-01T04:38:01;7.50;;;5.35;;
11187;SDS011;5650;52.700;7.306;2023-03-01T04:40:29;6.80;;;4.97;;
11187;SDS011;5650;52.700;7.306;2023-03-01T04:42:56;5.20;;;4.60;;
11187;SDS011;5650;52.700;7.306;2023-03-01T04:45:24;5.65;;;4.53;;
11187;SDS011;5650;52.700;7.306;2023-03-01T04:47:51;5.88;;;4.57;;
11187;SDS011;5650;52.700;7.306;2023-03-01T04:50:18;6.05;;;4.60;;
11187;SDS011;5650;52.700;7.306;2023-03-01T04:52:49;11.18;;;5.20;;
11187;SDS011;5650;52.700;7.306;2023-03-01T04:55:16;7.47;;;4.97;;
11187;SDS011;5650;52.700;7.306;2023-03-01T04:57:44;6.90;;;4.53;;
11187;SDS011;5650;52.700;7.306;2023-03-01T05:00:12;6.32;;;4.68;;
11187;SDS011;5650;52.700;7.306;2023-03-01T05:02:50;6.97;;;5.65;;
11187;SDS011;5650;52.700;7.306;2023-03-01T05:05:23;6.72;;;5.15;;
11187;SDS011;5650;52.700;7.306;2023-03-01T05:07:54;9.05;;;5.03;;
11187;SDS011;5650;52.700;7.306;2023-03-01T05:10:26;7.93;;;5.20;;
11187;SDS011;5650;52.700;7.306;2023-03-01T05:12:57;7.20;;;5.13;;
11187;SDS011;5650;52.700;7.306;2023-03-01T05:15:26;8.25;;;5.65;;
11187;SDS011;5650;52.700;7.306;2023-03-01T05:17:54;8.43;;;5.00;;
11187;SDS011;5650;52.700;7.306;2023-03-01T05:20:23;7.53;;;5.07;;
11187;SDS011;5650;52.700;7.306;2023-03-01T05:22:51;6.63;;;4.88;;
11187;SDS011;5650;52.700;7.306;2023-03-01T05:25:28;7.30;;;5.13;;
11187;SDS011;5650;52.700;7.306;2023-03-01T05:27:58;5.00;;;4.50;;
11187;SDS011;5650;52.700;7.306;2023-03-01T05:30:29;8.48;;;4.85;;
11187;SDS011;5650;52.700;7.306;2023-03-01T05:32:57;6.20;;;5.13;;
11187;SDS011;5650;52.700;7.306;2023-03-01T05:35:25;8.57;;;5.15;;
11187;SDS011;5650;52.700;7.306;2023-03-01T05:37:54;8.68;;;5.35;;
11187;SDS011;5650;52.700;7.306;2023-03-01T05:40:22;7.78;;;4.85;;
11187;SDS011;5650;52.700;7.306;2023-03-01T05:42:52;9.10;;;5.57;;
11187;SDS011;5650;52.700;7.306;2023-03-01T05:45:21;8.13;;;5.15;;
11187;SDS011;5650;52.700;7.306;2023-03-01T05:47:49;10.45;;;5.88;;
11187;SDS011;5650;52.700;7.306;2023-03-01T05:50:18;6.65;;;5.18;;
11187;SDS011;5650;52.700;7.306;2023-03-01T05:52:47;7.63;;;5.60;;
11187;SDS011;5650;52.700;7.306;2023-03-01T05:55:16;9.02;;;6.45;;
11187;SDS011;5650;52.700;7.306;2023-03-01T05:57:45;9.77;;;6.22;;
11187;SDS011;5650;52.700;7.306;2023-03-01T06:00:15;12.02;;;7.05;;
11187;SDS011;5650;52.700;7.306;2023-03-01T06:02:44;30.90;;;19.27;;
11187;SDS011;5650;52.700;7.306;2023-03-01T06:05:12;16.63;;;10.95;;
11187;SDS011;5650;52.700;7.306;2023-03-01T06:07:40;14.27;;;7.82;;
11187;SDS011;5650;52.700;7.306;2023-03-01T06:10:11;9.52;;;6.82;;
11187;SDS011;5650;52.700;7.306;2023-03-01T06:12:39;15.13;;;6.97;;
11187;SDS011;5650;52.700;7.306;2023-03-01T06:15:12;12.27;;;8.30;;
11187;SDS011;5650;52.700;7.306;2023-03-01T06:17:42;14.85;;;8.43;;
11187;SDS011;5650;52.700;7.306;2023-03-01T06:20:12;11.70;;;7.78;;
11187;SDS011;5650;52.700;7.306;2023-03-01T06:22:41;9.68;;;7.25;;
11187;SDS011;5650;52.700;7.306;2023-03-01T06:25:09;12.75;;;7.45;;
11187;SDS011;5650;52.700;7.306;2023-03-01T06:27:37;8.75;;;7.15;;
11187;SDS011;5650;52.700;7.306;2023-03-01T06:30:08;10.80;;;7.60;;
11187;SDS011;5650;52.700;7.306;2023-03-01T06:32:38;13.38;;;7.95;;
11187;SDS011;5650;52.700;7.306;2023-03-01T06:35:07;10.55;;;7.45;;
11187;SDS011;5650;52.700;7.306;2023-03-01T06:37:35;12.02;;;6.68;;
11187;SDS011;5650;52.700;7.306;2023-03-01T06:40:03;11.57;;;7.20;;
11187;SDS011;5650;52.700;7.306;2023-03-01T06:42:33;9.82;;;7.30;;
11187;SDS011;5650;52.700;7.306;2023-03-01T06:45:04;11.10;;;7.40;;
11187;SDS011;5650;52.700;7.306;2023-03-01T06:47:32;9.68;;;7.18;;
11187;SDS011;5650;52.700;7.306;2023-03-01T06:50:02;12.50;;;6.75;;
11187;SDS011;5650;52.700;7.306;2023-03-01T06:52:30;11.63;;;6.72;;
11187;SDS011;5650;52.700;7.306;2023-03-01T06:54:57;13.95;;;6.80;;
11187;SDS011;5650;52.700;7.306;2023-03-01T06:57:24;12.23;;;7.40;;
11187;SDS011;5650;52.700;7.306;2023-03-01T06:59:51;9.80;;;7.30;;
11187;SDS011;5650;52.700;7.306;2023-03-01T07:02:19;8.18;;;6.47;;
11187;SDS011;5650;52.700;7.306;2023-03-01T07:04:46;14.32;;;6.82;;
11187;SDS011;5650;52.700;7.306;2023-03-01T07:07:16;10.93;;;7.00;;
11187;SDS011;5650;52.700;7.306;2023-03-01T07:09:44;16.30;;;7.88;;
11187;SDS011;5650;52.700;7.306;2023-03-01T07:12:17;10.50;;;7.65;;
11187;SDS011;5650;52.700;7.306;2023-03-01T07:14:44;13.32;;;9.43;;
11187;SDS011;5650;52.700;7.306;2023-03-01T07:17:12;15.85;;;10.30;;
11187;SDS011;5650;52.700;7.306;2023-03-01T07:19:39;12.10;;;8.60;;
11187;SDS011;5650;52.700;7.306;2023-03-01T07:22:06;17.52;;;10.68;;
11187;SDS011;5650;52.700;7.306;2023-03-01T07:24:35;13.50;;;9.50;;
11187;SDS011;5650;52.700;7.306;2023-03-01T07:27:03;18.33;;;10.80;;
11187;SDS011;5650;52.700;7.306;2023-03-01T07:29:30;14.85;;;10.23;;
11187;SDS011;5650;52.700;7.306;2023-03-01T07:32:03;18.92;;;11.40;;
11187;SDS011;5650;52.700;7.306;2023-03-01T07:34:31;16.02;;;10.73;;
11187;SDS011;5650;52.700;7.306;2023-03-01T07:36:59;16.60;;;10.25;;
11187;SDS011;5650;52.700;7.306;2023-03-01T07:39:26;13.48;;;9.00;;
11187;SDS011;5650;52.700;7.306;2023-03-01T07:41:55;14.77;;;10.07;;
11187;SDS011;5650;52.700;7.306;2023-03-01T07:44:31;15.70;;;9.10;;
11187;SDS011;5650;52.700;7.306;2023-03-01T07:46:59;11.93;;;8.20;;
11187;SDS011;5650;52.700;7.306;2023-03-01T07:49:29;10.30;;;7.95;;
11187;SDS011;5650;52.700;7.306;2023-03-01T07:51:59;14.07;;;8.35;;
11187;SDS011;5650;52.700;7.306;2023-03-01T07:54:28;13.73;;;8.60;;
11187;SDS011;5650;52.700;7.306;2023-03-01T07:57:09;10.63;;;8.30;;
11187;SDS011;5650;52.700;7.306;2023-03-01T07:59:37;14.75;;;8.38;;
11187;SDS011;5650;52.700;7.306;2023-03-01T08:02:04;12.10;;;8.55;;
11187;SDS011;5650;52.700;7.306;2023-03-01T08:04:37;12.55;;;8.23;;
11187;SDS011;5650;52.700;7.306;2023-03-01T08:07:04;11.82;;;8.57;;
11187;SDS011;5650;52.700;7.306;2023-03-01T08:09:34;21.02;;;8.35;;
11187;SDS011;5650;52.700;7.306;2023-03-01T08:12:02;12.02;;;8.50;;
11187;SDS011;5650;52.700;7.306;2023-03-01T08:14:32;14.80;;;9.00;;
11187;SDS011;5650;52.700;7.306;2023-03-01T08:17:02;17.83;;;9.27;;
11187;SDS011;5650;52.700;7.306;2023-03-01T08:19:30;17.35;;;9.05;;
11187;SDS011;5650;52.700;7.306;2023-03-01T08:21:58;17.40;;;7.63;;
11187;SDS011;5650;52.700;7.306;2023-03-01T08:24:25;15.43;;;8.55;;
11187;SDS011;5650;52.700;7.306;2023-03-01T08:27:06;12.40;;;8.68;;
11187;SDS011;5650;52.700;7.306;2023-03-01T08:29:38;10.82;;;8.00;;
11187;SDS011;5650;52.700;7.306;2023-03-01T08:32:07;13.25;;;7.45;;
11187;SDS011;5650;52.700;7.306;2023-03-01T08:34:40;11.52;;;8.18;;
11187;SDS011;5650;52.700;7.306;2023-03-01T08:37:07;9.50;;;7.03;;
11187;SDS011;5650;52.700;7.306;2023-03-01T08:39:35;10.73;;;7.63;;
11187;SDS011;5650;52.700;7.306;2023-03-01T08:42:05;11.00;;;7.90;;
11187;SDS011;5650;52.700;7.306;2023-03-01T08:44:32;12.32;;;7.65;;
11187;SDS011;5650;52.700;7.306;2023-03-01T08:47:04;10.70;;;7.25;;
11187;SDS011;5650;52.700;7.306;2023-03-01T08:49:31;12.15;;;7.65;;
11187;SDS011;5650;52.700;7.306;2023-03-01T08:51:58;12.27;;;7.72;;
11187;SDS011;5650;52.700;7.306;2023-03-01T08:54:26;10.27;;;7.70;;
11187;SDS011;5650;52.700;7.306;2023-03-01T08:57:00;12.27;;;7.32;;
11187;SDS011;5650;52.700;7.306;2023-03-01T08:59:31;10.65;;;7.40;;
11187;SDS011;5650;52.700;7.306;2023-03-01T09:02:03;10.82;;;7.70;;
11187;SDS011;5650;52.700;7.306;2023-03-01T09:04:31;10.70;;;7.30;;
11187;SDS011;5650;52.700;7.306;2023-03-01T09:07:01;11.73;;;6.65;;
11187;SDS011;5650;52.700;7.306;2023-03-01T09:09:29;10.10;;;8.43;;
11187;SDS011;5650;52.700;7.306;2023-03-01T09:11:59;9.23;;;7.63;;
11187;SDS011;5650;52.700;7.306;2023-03-01T09:14:26;9.45;;;6.18;;
11187;SDS011;5650;52.700;7.306;2023-03-01T09:16:56;9.68;;;6.00;;
11187;SDS011;5650;52.700;7.306;2023-03-01T09:19:29;8.50;;;6.22;;
11187;SDS011;5650;52.700;7.306;2023-03-01T09:21:56;10.65;;;6.82;;
11187;SDS011;5650;52.700;7.306;2023-03-01T09:24:26;9.23;;;6.55;;
11187;SDS011;5650;52.700;7.306;2023-03-01T09:26:56;8.18;;;6.18;;
11187;SDS011;5650;52.700;7.306;2023-03-01T09:29:25;11.23;;;5.70;;
11187;SDS011;5650;52.700;7.306;2023-03-01T09:31:52;9.80;;;4.88;;
11187;SDS011;5650;52.700;7.306;2023-03-01T09:34:23;6.55;;;4.60;;
11187;SDS011;5650;52.700;7.306;2023-03-01T09:36:58;7.70;;;4.43;;
11187;SDS011;5650;52.700;7.306;2023-03-01T09:39:34;11.45;;;6.30;;
11187;SDS011;5650;52.700;7.306;2023-03-01T09:42:02;8.13;;;4.70;;
11187;SDS011;5650;52.700;7.306;2023-03-01T09:44:32;8.60;;;5.80;;
11187;SDS011;5650;52.700;7.306;2023-03-01T09:47:04;13.43;;;7.40;;
11187;SDS011;5650;52.700;7.306;2023-03-01T09:49:39;8.18;;;4.47;;
11187;SDS011;5650;52.700;7.306;2023-03-01T09:52:19;8.23;;;5.53;;
11187;SDS011;5650;52.700;7.306;2023-03-01T09:54:54;8.35;;;4.88;;
11187;SDS011;5650;52.700;7.306;2023-03-01T09:57:26;8.32;;;5.43;;
11187;SDS011;5650;52.700;7.306;2023-03-01T10:00:07;7.85;;;4.85;;
11187;SDS011;5650;52.700;7.306;2023-03-01T10:03:07;7.50;;;4.30;;
11187;SDS011;5650;52.700;7.306;2023-03-01T10:05:43;7.32;;;4.28;;
11187;SDS011;5650;52.700;7.306;2023-03-01T10:08:33;5.43;;;3.90;;
11187;SDS011;5650;52.700;7.306;2023-03-01T10:11:18;12.63;;;4.28;;
11187;SDS011;5650;52.700;7.306;2023-03-01T10:13:49;6.25;;;4.15;;
11187;SDS011;5650;52.700;7.306;2023-03-01T10:16:25;4.63;;;3.80;;
11187;SDS011;5650;52.700;7.306;2023-03-01T10:19:00;7.47;;;3.80;;
11187;SDS011;5650;52.700;7.306;2023-03-01T10:21:31;9.07;;;3.65;;
11187;SDS011;5650;52.700;7.306;2023-03-01T10:24:11;5.38;;;3.28;;
11187;SDS011;5650;52.700;7.306;2023-03-01T10:26:46;4.63;;;3.00;;
11187;SDS011;5650;52.700;7.306;2023-03-01T10:29:20;4.10;;;3.05;;
11187;SDS011;5650;52.700;7.306;2023-03-01T10:31:52;6.03;;;3.60;;
11187;SDS011;5650;52.700;7.306;2023-03-01T10:34:33;4.07;;;2.92;;
11187;SDS011;5650;52.700;7.306;2023-03-01T10:37:09;8.40;;;3.35;;
11187;SDS011;5650;52.700;7.306;2023-03-01T10:39:58;6.80;;;3.78;;
11187;SDS011;5650;52.700;7.306;2023-03-01T10:42:33;4.75;;;3.50;;
11187;SDS011;5650;52.700;7.306;2023-03-01T10:45:17;4.75;;;3.08;;
11187;SDS011;5650;52.700;7.306;2023-03-01T10:48:04;5.75;;;3.65;;
11187;SDS011;5650;52.700;7.306;2023-03-01T10:50:37;7.15;;;3.88;;
11187;SDS011;5650;52.700;7.306;2023-03-01T10:53:10;6.63;;;4.00;;
11187;SDS011;5650;52.700;7.306;2023-03-01T10:58:35;6.13;;;4.05;;
11187;SDS011;5650;52.700;7.306;2023-03-01T11:01:23;6.93;;;3.42;;
11187;SDS011;5650;52.700;7.306;2023-03-01T11:04:09;7.40;;;4.15;;
11187;SDS011;5650;52.700;7.306;2023-03-01T11:06:42;5.43;;;3.70;;
11187;SDS011;5650;52.700;7.306;2023-03-01T11:09:13;6.55;;;3.78;;
11187;SDS011;5650;52.700;7.306;2023-03-01T11:11:43;6.22;;;3.95;;
11187;SDS011;5650;52.700;7.306;2023-03-01T11:14:15;7.70;;;4.20;;
11187;SDS011;5650;52.700;7.306;2023-03-01T11:17:00;6.30;;;3.67;;
11187;SDS011;5650;52.700;7.306;2023-03-01T11:19:32;4.63;;;3.78;;
11187;SDS011;5650;52.700;7.306;2023-03-01T11:22:01;6.38;;;4.05;;
11187;SDS011;5650;52.700;7.306;2023-03-01T11:24:34;6.63;;;4.20;;
11187;SDS011;5650;52.700;7.306;2023-03-01T11:27:11;12.52;;;5.35;;
11187;SDS011;5650;52.700;7.306;2023-03-01T11:29:44;7.28;;;4.60;;
11187;SDS011;5650;52.700;7.306;2023-03-01T11:32:16;5.95;;;4.32;;
11187;SDS011;5650;52.700;7.306;2023-03-01T11:34:46;8.93;;;4.53;;
11187;SDS011;5650;52.700;7.306;2023-03-01T11:37:21;9.35;;;5.90;;
11187;SDS011;5650;52.700;7.306;2023-03-01T11:39:59;8.82;;;5.75;;
11187;SDS011;5650;52.700;7.306;2023-03-01T11:42:50;7.75;;;5.72;;
11187;SDS011;5650;52.700;7.306;2023-03-01T11:45:39;12.60;;;5.90;;
11187;SDS011;5650;52.700;7.306;2023-03-01T11:51:19;6.72;;;5.22;;
11187;SDS011;5650;52.700;7.306;2023-03-01T11:54:03;8.75;;;5.70;;
11187;SDS011;5650;52.700;7.306;2023-03-01T11:56:40;9.32;;;5.78;;
11187;SDS011;5650;52.700;7.306;2023-03-01T12:02:27;8.52;;;5.85;;
11187;SDS011;5650;52.700;7.306;2023-03-01T12:05:33;7.35;;;5.43;;
11187;SDS011;5650;52.700;7.306;2023-03-01T12:08:33;7.80;;;5.90;;
11187;SDS011;5650;52.700;7.306;2023-03-01T12:11:08;8.57;;;6.10;;
11187;SDS011;5650;52.700;7.306;2023-03-01T12:14:07;9.25;;;6.97;;
11187;SDS011;5650;52.700;7.306;2023-03-01T12:16:53;9.55;;;7.50;;
11187;SDS011;5650;52.700;7.306;2023-03-01T12:19:34;7.57;;;5.28;;
11187;SDS011;5650;52.700;7.306;2023-03-01T12:22:18;8.88;;;5.70;;
11187;SDS011;5650;52.700;7.306;2023-03-01T12:31:16;8.38;;;6.03;;
11187;SDS011;5650;52.700;7.306;2023-03-01T12:34:09;8.18;;;6.78;;
11187;SDS011;5650;52.700;7.306;2023-03-01T12:39:43;8.68;;;5.97;;
11187;SDS011;5650;52.700;7.306;2023-03-01T12:42:20;9.35;;;5.63;;
11187;SDS011;5650;52.700;7.306;2023-03-01T12:45:02;11.93;;;5.90;;
11187;SDS011;5650;52.700;7.306;2023-03-01T12:47:51;7.00;;;5.60;;
11187;SDS011;5650;52.700;7.306;2023-03-01T12:50:37;10.05;;;5.63;;
11187;SDS011;5650;52.700;7.306;2023-03-01T12:53:22;8.20;;;5.70;;
11187;SDS011;5650;52.700;7.306;2023-03-01T12:55:52;7.28;;;5.20;;
11187;SDS011;5650;52.700;7.306;2023-03-01T12:58:24;9.05;;;6.55;;
11187;SDS011;5650;52.700;7.306;2023-03-01T13:01:03;8.43;;;5.55;;
11187;SDS011;5650;52.700;7.306;2023-03-01T13:03:52;7.53;;;5.55;;
11187;SDS011;5650;52.700;7.306;2023-03-01T13:06:38;8.82;;;5.72;;
11187;SDS011;5650;52.700;7.306;2023-03-01T13:09:13;8.85;;;6.15;;
11187;SDS011;5650;52.700;7.306;2023-03-01T13:11:48;9.50;;;6.03;;
11187;SDS011;5650;52.700;7.306;2023-03-01T13:19:57;7.72;;;5.72;;
11187;SDS011;5650;52.700;7.306;2023-03-01T13:22:34;8.82;;;6.30;;
11187;SDS011;5650;52.700;7.306;2023-03-01T13:25:03;9.98;;;6.20;;
11187;SDS011;5650;52.700;7.306;2023-03-01T13:27:40;9.55;;;6.00;;
11187;SDS011;5650;52.700;7.306;2023-03-01T13:42:00;10.35;;;6.30;;
11187;SDS011;5650;52.700;7.306;2023-03-01T13:44:48;10.77;;;6.50;;
11187;SDS011;5650;52.700;7.306;2023-03-01T13:47:19;8.65;;;6.50;;
11187;SDS011;5650;52.700;7.306;2023-03-01T13:49:49;9.02;;;6.63;;
11187;SDS011;5650;52.700;7.306;2023-03-01T13:52:27;9.15;;;6.38;;
11187;SDS011;5650;52.700;7.306;2023-03-01T13:55:20;10.45;;;6.90;;
11187;SDS011;5650;52.700;7.306;2023-03-01T13:57:52;8.80;;;7.38;;
11187;SDS011;5650;52.700;7.306;2023-03-01T14:03:11;10.10;;;7.22;;
11187;SDS011;5650;52.700;7.306;2023-03-01T14:05:41;8.52;;;6.95;;
11187;SDS011;5650;52.700;7.306;2023-03-01T14:14:14;11.43;;;8.05;;
11187;SDS011;5650;52.700;7.306;2023-03-01T14:16:59;13.15;;;8.70;;
11187;SDS011;5650;52.700;7.306;2023-03-01T14:20:00;11.85;;;8.93;;
11187;SDS011;5650;52.700;7.306;2023-03-01T14:22:37;11.02;;;7.00;;
11187;SDS011;5650;52.700;7.306;2023-03-01T14:25:16;10.43;;;7.53;;
11187;SDS011;5650;52.700;7.306;2023-03-01T14:27:57;13.43;;;7.72;;
11187;SDS011;5650;52.700;7.306;2023-03-01T14:30:31;13.10;;;7.22;;
11187;SDS011;5650;52.700;7.306;2023-03-01T14:33:17;10.35;;;7.82;;
11187;SDS011;5650;52.700;7.306;2023-03-01T14:36:04;13.35;;;7.65;;
11187;SDS011;5650;52.700;7.306;2023-03-01T14:38:34;9.88;;;7.65;;
11187;SDS011;5650;52.700;7.306;2023-03-01T14:41:03;12.80;;;8.38;;
11187;SDS011;5650;52.700;7.306;2023-03-01T14:43:39;10.00;;;7.18;;
11187;SDS011;5650;52.700;7.306;2023-03-01T14:48:57;14.07;;;7.78;;
11187;SDS011;5650;52.700;7.306;2023-03-01T14:51:34;10.75;;;8.18;;
11187;SDS011;5650;52.700;7.306;2023-03-01T14:54:04;10.60;;;8.07;;
11187;SDS011;5650;52.700;7.306;2023-03-01T14:56:45;12.77;;;8.13;;
11187;SDS011;5650;52.700;7.306;2023-03-01T14:59:14;13.52;;;8.57;;
11187;SDS011;5650;52.700;7.306;2023-03-01T15:01:42;11.98;;;8.77;;
11187;SDS011;5650;52.700;7.306;2023-03-01T15:04:11;9.88;;;8.00;;
11187;SDS011;5650;52.700;7.306;2023-03-01T15:06:45;9.25;;;7.47;;
11187;SDS011;5650;52.700;7.306;2023-03-01T15:09:14;10.13;;;7.63;;
11187;SDS011;5650;52.700;7.306;2023-03-01T15:11:42;8.27;;;7.15;;
11187;SDS011;5650;52.700;7.306;2023-03-01T15:14:28;8.82;;;7.30;;
11187;SDS011;5650;52.700;7.306;2023-03-01T15:17:18;11.95;;;7.85;;
11187;SDS011;5650;52.700;7.306;2023-03-01T15:19:50;13.07;;;9.52;;
11187;SDS011;5650;52.700;7.306;2023-03-01T15:22:17;10.75;;;7.97;;
11187;SDS011;5650;52.700;7.306;2023-03-01T15:24:48;12.55;;;7.90;;
11187;SDS011;5650;52.700;7.306;2023-03-01T15:27:20;10.27;;;7.40;;
11187;SDS011;5650;52.700;7.306;2023-03-01T15:29:53;9.40;;;7.97;;
11187;SDS011;5650;52.700;7.306;2023-03-01T15:32:25;11.65;;;8.25;;
11187;SDS011;5650;52.700;7.306;2023-03-01T15:34:56;8.93;;;7.32;;
11187;SDS011;5650;52.700;7.306;2023-03-01T15:37:38;9.10;;;7.05;;
11187;SDS011;5650;52.700;7.306;2023-03-01T15:40:19;12.63;;;8.40;;
11187;SDS011;5650;52.700;7.306;2023-03-01T15:42:58;10.63;;;8.38;;
11187;SDS011;5650;52.700;7.306;2023-03-01T15:45:30;10.82;;;8.55;;
11187;SDS011;5650;52.700;7.306;2023-03-01T15:48:03;11.38;;;8.25;;
11187;SDS011;5650;52.700;7.306;2023-03-01T15:50:32;12.27;;;8.52;;
11187;SDS011;5650;52.700;7.306;2023-03-01T15:53:01;10.55;;;8.02;;
11187;SDS011;5650;52.700;7.306;2023-03-01T15:55:32;11.27;;;8.73;;
11187;SDS011;5650;52.700;7.306;2023-03-01T15:58:00;11.65;;;8.30;;
11187;SDS011;5650;52.700;7.306;2023-03-01T16:00:33;10.40;;;8.23;;
11187;SDS011;5650;52.700;7.306;2023-03-01T16:03:00;10.15;;;7.90;;
11187;SDS011;5650;52.700;7.306;2023-03-01T16:05:28;11.40;;;7.75;;
11187;SDS011;5650;52.700;7.306;2023-03-01T16:08:01;11.57;;;8.30;;
11187;SDS011;5650;52.700;7.306;2023-03-01T16:10:31;10.75;;;8.07;;
11187;SDS011;5650;52.700;7.306;2023-03-01T16:13:00;14.20;;;8.43;;
11187;SDS011;5650;52.700;7.306;2023-03-01T16:15:28;13.05;;;9.40;;
11187;SDS011;5650;52.700;7.306;2023-03-01T16:17:58;12.52;;;8.10;;